1995 KYLIE (1995064S13055)


On this page: IBTrACS data - Map and Plots - Positions - Intensities - Original source data

Summary

Start Mar 4
End Mar 15
Basin SI
LMI 85 kt
Sources jtwc_sh
reunion
neumann
In WMO? Yes
Previous storm 1995 JOSTA (SI)
Previous in basin 1995 JOSTA (SI)
Concurrent storms 1995 VIOLET (SP)
1995 WARREN (SP)
1995 JOSTA (SI)
1995 KYLIE (SI)
1995 LIDY (SI)
1995 HSK1995 (SP)
Next in basin 1995 LIDY (SI)
Next storm 1995 LIDY (SI)

top of page IBTrACS Data: File Access

top of page HURSAT Data: File Access

Image of storm

top of page Plots:

Map of storm track will not appear if FTP is down
Time series of cyclone Maximum Sustained Wind will not appear if FTP is down
Time series of cyclone Minimum Central Pressure will not appear if FTP is down

top of page Track Data:Position

jtwc_sh reunion neumann
Date Lat Lon Lat Lon Lat Lon
1995-03-04 18:00:00 -13.2 55.4 -13.2 55.4
1995-03-05 00:00:00 -13.3 55.6 -13.3 55.6
1995-03-05 06:00:00 -13.4 55.7 -13.4 55.7
1995-03-05 12:00:00 -13.5 55.9 -13.5 55.9
1995-03-05 18:00:00 -13.6 56.0 -13.6 56.0
1995-03-06 00:00:00 -13.7 56.2 -13.7 56.2
1995-03-06 06:00:00 -13.8 56.3 -12.9 55.4 -13.8 56.3
1995-03-06 12:00:00 -13.9 56.5 -13.1 56.1 -13.9 56.5
1995-03-06 18:00:00 -14.0 56.6 -13.6 56.5 -14.0 56.6
1995-03-07 00:00:00 -14.1 56.8 -13.9 56.8 -14.1 56.8
1995-03-07 06:00:00 -14.2 57.0 -14.1 57.3 -14.2 57.0
1995-03-07 12:00:00 -14.3 57.2 -14.3 57.7 -14.3 57.2
1995-03-07 18:00:00 -14.4 57.4 -14.6 57.8 -14.4 57.4
1995-03-08 00:00:00 -14.5 57.6 -14.8 57.8 -14.5 57.6
1995-03-08 06:00:00 -14.6 57.8 -15.0 57.7 -14.6 57.8
1995-03-08 12:00:00 -14.7 58.0 -15.2 58.1 -14.7 58.0
1995-03-08 18:00:00 -14.7 58.1 -15.1 58.3 -14.7 58.1
1995-03-09 00:00:00 -14.8 58.2 -15.1 58.3 -14.8 58.2
1995-03-09 06:00:00 -14.8 58.3 -15.2 58.3 -14.8 58.3
1995-03-09 12:00:00 -14.8 58.4 -15.4 58.3 -14.8 58.4
1995-03-09 18:00:00 -14.9 58.3 -15.6 58.3 -14.9 58.3
1995-03-10 00:00:00 -14.9 58.2 -15.8 58.4 -14.9 58.2
1995-03-10 06:00:00 -14.9 58.1 -15.7 58.6 -14.9 58.1
1995-03-10 12:00:00 -15.0 58.0 -15.5 58.6 -15.0 58.0
1995-03-10 18:00:00 -15.0 57.9 -15.2 58.2 -15.0 57.9
jtwc_sh reunion neumann
1995-03-11 00:00:00 -15.0 57.8 -15.0 57.9 -15.0 57.8
1995-03-11 06:00:00 -15.1 57.6 -14.7 57.7 -15.1 57.6
1995-03-11 12:00:00 -15.2 57.4 -14.8 57.1 -15.2 57.4
1995-03-11 18:00:00 -15.4 57.2 -15.1 57.1 -15.4 57.2
1995-03-12 00:00:00 -15.8 57.1 -15.5 57.1 -15.8 57.1
1995-03-12 06:00:00 -16.4 57.0 -15.9 57.1 -16.4 57.0
1995-03-12 12:00:00 -17.1 56.9 -16.4 57.0 -17.1 56.9
1995-03-12 18:00:00 -17.9 56.6 -17.4 56.7 -17.9 56.6
1995-03-13 00:00:00 -18.9 56.3 -18.5 56.3 -18.9 56.3
1995-03-13 06:00:00 -19.9 56.0 -19.7 55.9 -19.9 56.0
1995-03-13 12:00:00 -20.7 55.4 -20.6 55.5 -20.7 55.4
1995-03-13 18:00:00 -21.4 54.6 -21.7 54.3 -21.4 54.6
1995-03-14 00:00:00 -21.9 53.7 -22.5 52.9 -21.9 53.7
1995-03-14 06:00:00 -22.7 52.9 -22.7 53.0 -22.7 52.9
1995-03-14 12:00:00 -24.0 52.6 -23.4 53.3 -24.0 52.6
1995-03-14 18:00:00 -25.5 53.0 -24.9 53.2 -25.5 53.0
1995-03-15 00:00:00 -27.1 53.9 -27.1 53.9 -27.1 53.9
1995-03-15 06:00:00 -28.9 55.3 -29.9 56.2 -28.9 55.3

top of pageTrack Data:Intensity

jtwc_sh reunion neumann
Date Wind Pres Wind Pres Wind Pres
1995-03-04 18:00:00 15. 15.
1995-03-05 00:00:00 15. 15.
1995-03-05 06:00:00 20. 20.
1995-03-05 12:00:00 20. 20.
1995-03-05 18:00:00 20. 20.
1995-03-06 00:00:00 20. 20.
1995-03-06 06:00:00 25. 20. 1004. 25.
1995-03-06 12:00:00 25. 25. 1002. 25.
1995-03-06 18:00:00 25. 25. 1000. 25.
1995-03-07 00:00:00 25. 28. 998. 25.
1995-03-07 06:00:00 30. 28. 998. 30.
1995-03-07 12:00:00 30. 30. 995. 30.
1995-03-07 18:00:00 30. 35. 992. 30.
1995-03-08 00:00:00 35. 35. 990. 35.
1995-03-08 06:00:00 35. 40. 988. 35.
1995-03-08 12:00:00 40. 40. 988. 40.
1995-03-08 18:00:00 40. 35. 990. 40.
1995-03-09 00:00:00 40. 35. 990. 40.
1995-03-09 06:00:00 45. 35. 990. 45.
1995-03-09 12:00:00 45. 35. 992. 45.
1995-03-09 18:00:00 45. 35. 992. 45.
1995-03-10 00:00:00 50. 38. 990. 50.
1995-03-10 06:00:00 50. 38. 990. 50.
1995-03-10 12:00:00 55. 38. 990. 55.
1995-03-10 18:00:00 55. 38. 990. 55.
jtwc_sh reunion neumann
1995-03-11 00:00:00 60. 42. 987. 60.
1995-03-11 06:00:00 65. 45. 984. 65.
1995-03-11 12:00:00 70. 45. 984. 70.
1995-03-11 18:00:00 75. 45. 984. 75.
1995-03-12 00:00:00 85. 42. 987. 85.
1995-03-12 06:00:00 85. 40. 990. 85.
1995-03-12 12:00:00 85. 42. 987. 85.
1995-03-12 18:00:00 85. 42. 987. 85.
1995-03-13 00:00:00 85. 42. 987. 85.
1995-03-13 06:00:00 75. 42. 987. 75.
1995-03-13 12:00:00 65. 35. 992. 65.
1995-03-13 18:00:00 55. 35. 992. 55.
1995-03-14 00:00:00 50. 35. 992. 50.
1995-03-14 06:00:00 45. 30. 995. 45.
1995-03-14 12:00:00 40. 25. 998. 40.
1995-03-14 18:00:00 35. 25. 1000. 35.
1995-03-15 00:00:00 30. 20. 1002. 30.
1995-03-15 06:00:00 25. 25.

top of page Links to source data

Source Source file Format
jtwc_sh bsh171995.txt ATCF
reunion WMO-Best-Tracks.txt:Line=17089:kylie WMO (old format)
neumann tracks.sh:Storm=1030:KYLIE:BSH171995:JTWC&Reunion HURDAT